Time;durP1;ratioP1;P1;durP2;ratioP2;P2;SDS_P1;SDS_P2;PMS_P1;PMS_P2;Temp;Humidity;BMP_temperature;BMP_pressure;BME280_temperature;BME280_humidity;BME280_pressure;Samples;Min_cycle;Max_cycle;Signal;HPM_P1;HPM_P2
2024/01/21 00:01:47;;;;;;;13.27;6.32;;;0.60;99.90;;;;;;4156327;28;20494;-71
2024/01/21 00:03:48;;;;;;;13.43;5.88;;;0.60;99.90;;;;;;4155612;28;20033;-71
2024/01/21 00:05:48;;;;;;;15.18;5.93;;;0.60;99.90;;;;;;4138334;28;20034;-71
2024/01/21 00:07:49;;;;;;;12.27;5.68;;;0.60;99.90;;;;;;4155732;28;20088;-72
2024/01/21 00:09:49;;;;;;;12.57;5.80;;;0.60;99.90;;;;;;4154731;28;20037;-71
2024/01/21 00:11:50;;;;;;;10.38;5.38;;;0.70;99.90;;;;;;4157020;28;20119;-71
2024/01/21 00:13:51;;;;;;;11.85;6.03;;;0.70;99.90;;;;;;4158146;28;20033;-71
2024/01/21 00:15:51;;;;;;;9.45;5.05;;;0.70;99.90;;;;;;4155065;28;20368;-72
2024/01/21 00:17:52;;;;;;;12.35;5.72;;;0.80;99.90;;;;;;4140097;28;20381;-71
2024/01/21 00:19:52;;;;;;;9.65;5.00;;;0.70;99.90;;;;;;4159507;28;20499;-71
2024/01/21 00:21:53;;;;;;;11.23;5.72;;;0.70;99.90;;;;;;4160338;28;20034;-71
2024/01/21 00:23:54;;;;;;;10.13;5.68;;;0.70;99.90;;;;;;4156225;28;20498;-70
2024/01/21 00:25:54;;;;;;;14.18;5.60;;;0.70;99.90;;;;;;4138157;28;20147;-69
2024/01/21 00:27:55;;;;;;;13.43;5.50;;;0.70;99.90;;;;;;4160645;28;20061;-69
2024/01/21 00:29:55;;;;;;;11.38;5.53;;;0.70;99.90;;;;;;4159884;28;20049;-69
2024/01/21 00:31:56;;;;;;;11.07;5.68;;;0.70;99.90;;;;;;4160076;28;20057;-69
2024/01/21 00:33:57;;;;;;;10.40;5.10;;;0.70;99.90;;;;;;4161061;28;20025;-72
2024/01/21 00:35:57;;;;;;;9.07;4.95;;;0.70;99.90;;;;;;4160679;28;20052;-71
2024/01/21 00:37:58;;;;;;;11.63;5.50;;;0.70;99.90;;;;;;4158382;28;20399;-70
2024/01/21 00:39:58;;;;;;;8.45;5.07;;;0.70;99.90;;;;;;4161605;28;20041;-71
2024/01/21 00:41:59;;;;;;;9.80;4.82;;;0.70;99.90;;;;;;4160657;28;20442;-71
2024/01/21 00:44:00;;;;;;;8.82;5.15;;;0.70;99.90;;;;;;4158315;28;20386;-72
2024/01/21 00:46:04;;;;;;;11.15;5.38;;;0.70;99.90;;;;;;4156896;28;20045;-70
2024/01/21 00:48:05;;;;;;;9.80;5.07;;;0.60;99.90;;;;;;4160390;28;20160;-71
2024/01/21 00:50:06;;;;;;;11.00;5.65;;;0.70;99.90;;;;;;4161382;28;20434;-72
2024/01/21 00:52:08;;;;;;;9.15;4.97;;;0.70;99.90;;;;;;4160924;28;20037;-71
2024/01/21 00:54:08;;;;;;;12.95;5.57;;;0.70;99.90;;;;;;4161260;28;20065;-71
2024/01/21 00:56:09;;;;;;;11.43;5.32;;;0.70;99.90;;;;;;4160313;28;20525;-70
2024/01/21 00:58:10;;;;;;;10.43;5.50;;;0.70;99.90;;;;;;4160360;28;20273;-70
2024/01/21 01:00:11;;;;;;;11.40;5.78;;;0.70;99.90;;;;;;4139428;28;20513;-73
2024/01/21 01:02:11;;;;;;;9.30;5.13;;;0.60;99.90;;;;;;4157621;28;20057;-69
2024/01/21 01:04:12;;;;;;;11.02;5.65;;;0.70;99.90;;;;;;4160825;28;20046;-70
2024/01/21 01:06:12;;;;;;;11.73;4.90;;;0.60;99.90;;;;;;4158409;28;20038;-71
2024/01/21 01:08:13;;;;;;;11.80;5.10;;;0.60;99.90;;;;;;4158773;28;20497;-72
2024/01/21 01:10:13;;;;;;;10.80;5.40;;;0.70;99.90;;;;;;4160220;28;20482;-72
2024/01/21 01:12:14;;;;;;;11.85;5.32;;;0.70;99.90;;;;;;4161410;28;20562;-71
2024/01/21 01:14:15;;;;;;;10.15;5.22;;;0.70;99.90;;;;;;4161202;28;20403;-71
2024/01/21 01:16:15;;;;;;;10.02;5.43;;;0.60;99.90;;;;;;4152180;28;20414;-72
2024/01/21 01:18:16;;;;;;;12.43;5.93;;;0.70;99.90;;;;;;4159595;28;20053;-71
2024/01/21 01:20:16;;;;;;;11.52;5.50;;;0.70;99.90;;;;;;4158019;28;20052;-70
2024/01/21 01:22:17;;;;;;;14.05;6.65;;;0.60;99.90;;;;;;4161242;28;20404;-70
2024/01/21 01:24:19;;;;;;;11.52;6.18;;;0.60;99.90;;;;;;4160288;28;20052;-71
2024/01/21 01:26:20;;;;;;;11.18;5.90;;;0.60;99.90;;;;;;4157221;28;20034;-71
2024/01/21 01:28:20;;;;;;;13.38;6.32;;;0.70;99.90;;;;;;4158568;28;20040;-70
2024/01/21 01:30:21;;;;;;;11.38;6.07;;;0.70;99.90;;;;;;4161636;28;20029;-72
2024/01/21 01:32:22;;;;;;;15.07;6.40;;;0.60;99.90;;;;;;4158387;28;20502;-68
2024/01/21 01:34:22;;;;;;;13.23;6.88;;;0.60;99.90;;;;;;4156333;28;20029;-71
2024/01/21 01:36:23;;;;;;;13.60;6.70;;;0.60;99.90;;;;;;4157212;28;20061;-71
2024/01/21 01:38:23;;;;;;;13.80;6.88;;;0.60;99.90;;;;;;4156542;28;20033;-71
2024/01/21 01:40:24;;;;;;;13.60;7.05;;;0.60;99.90;;;;;;4152949;28;20518;-71
2024/01/21 01:42:24;;;;;;;12.45;6.60;;;0.60;99.90;;;;;;4156282;28;20052;-71
2024/01/21 01:44:25;;;;;;;11.52;6.40;;;0.60;99.90;;;;;;4157754;28;20057;-72
2024/01/21 01:46:26;;;;;;;15.85;7.15;;;0.60;99.90;;;;;;4148846;28;20511;-71
2024/01/21 01:48:28;;;;;;;17.27;7.43;;;0.60;99.90;;;;;;4157484;28;20569;-71
2024/01/21 01:50:29;;;;;;;19.63;7.57;;;0.60;99.90;;;;;;4155341;28;20100;-71
2024/01/21 01:52:30;;;;;;;13.07;6.97;;;0.60;99.90;;;;;;4156727;28;20045;-71
2024/01/21 01:54:33;;;;;;;12.25;6.57;;;0.60;99.90;;;;;;4157278;28;20384;-71
2024/01/21 01:56:34;;;;;;;13.00;6.80;;;0.60;99.90;;;;;;4154090;28;20048;-70
2024/01/21 01:58:37;;;;;;;15.00;7.03;;;0.60;99.90;;;;;;4157623;28;20478;-71
2024/01/21 02:00:37;;;;;;;13.25;7.00;;;0.60;99.90;;;;;;4152330;28;20107;-70
2024/01/21 02:02:42;;;;;;;14.10;7.78;;;0.60;99.90;;;;;;4158551;28;20453;-71
2024/01/21 02:04:43;;;;;;;15.35;7.63;;;0.50;99.90;;;;;;4157189;28;20033;-70
2024/01/21 02:06:43;;;;;;;14.98;7.78;;;0.60;99.90;;;;;;4153282;28;20114;-72
2024/01/21 02:08:44;;;;;;;12.65;7.18;;;0.60;99.90;;;;;;4137951;28;20026;-72
2024/01/21 02:10:45;;;;;;;14.52;7.97;;;0.60;99.90;;;;;;4153591;28;20033;-71
2024/01/21 02:12:45;;;;;;;14.57;8.05;;;0.60;99.90;;;;;;4139172;28;20446;-71
2024/01/21 02:14:46;;;;;;;16.05;7.90;;;0.60;99.90;;;;;;4153147;28;20490;-71
2024/01/21 02:16:47;;;;;;;16.02;8.23;;;0.60;99.90;;;;;;4153265;28;20033;-71
2024/01/21 02:18:49;;;;;;;16.98;8.82;;;0.70;99.90;;;;;;4155090;28;20394;-70
2024/01/21 02:20:50;;;;;;;15.50;8.55;;;0.70;99.90;;;;;;4151118;28;20506;-71
2024/01/21 02:22:51;;;;;;;14.90;8.23;;;0.70;99.90;;;;;;4154613;28;20129;-71
2024/01/21 02:24:51;;;;;;;17.02;8.18;;;0.70;99.90;;;;;;4135745;28;20084;-71
2024/01/21 02:26:52;;;;;;;16.00;8.68;;;0.70;99.90;;;;;;4154727;28;20746;-70
2024/01/21 02:28:52;;;;;;;15.20;8.80;;;0.70;99.90;;;;;;4138121;28;20407;-71
2024/01/21 02:30:53;;;;;;;15.13;8.27;;;0.70;99.90;;;;;;4153225;28;20490;-71
2024/01/21 02:32:53;;;;;;;18.83;9.38;;;0.80;99.90;;;;;;4154466;28;20050;-71
2024/01/21 02:34:54;;;;;;;17.92;9.50;;;0.70;99.90;;;;;;4155774;28;20579;-70
2024/01/21 02:36:55;;;;;;;17.13;8.55;;;0.80;99.90;;;;;;4156319;28;20045;-70
2024/01/21 02:38:55;;;;;;;16.80;8.95;;;0.80;99.90;;;;;;4159383;28;20049;-71
2024/01/21 02:40:56;;;;;;;15.65;7.97;;;0.70;99.90;;;;;;4155870;28;20112;-70
2024/01/21 02:42:56;;;;;;;16.85;9.48;;;0.70;99.90;;;;;;4159150;28;20026;-71
2024/01/21 02:44:58;;;;;;;16.67;9.10;;;0.70;99.90;;;;;;4156816;28;20038;-70
2024/01/21 02:46:59;;;;;;;16.73;8.10;;;0.70;99.90;;;;;;4156643;28;20060;-70
2024/01/21 02:48:59;;;;;;;15.40;8.75;;;0.80;99.90;;;;;;4157916;28;20037;-70
2024/01/21 02:51:00;;;;;;;18.42;9.55;;;0.80;99.90;;;;;;4157558;28;20525;-71
2024/01/21 02:53:01;;;;;;;19.15;9.05;;;0.80;99.90;;;;;;4157046;28;20398;-71
2024/01/21 02:55:01;;;;;;;17.30;9.65;;;0.80;99.90;;;;;;4149994;28;20415;-74
2024/01/21 02:57:02;;;;;;;14.93;7.80;;;0.80;99.90;;;;;;4157687;28;20037;-74
2024/01/21 02:59:02;;;;;;;18.65;9.55;;;0.80;99.90;;;;;;4158010;28;20040;-74
2024/01/21 03:01:05;;;;;;;17.75;9.45;;;0.80;99.90;;;;;;4157129;28;20398;-74
2024/01/21 03:03:05;;;;;;;;;;;0.90;99.90;;;;;;4157838;28;20045;-74
2024/01/21 03:05:09;;;;;;;17.83;9.43;;;0.90;99.90;;;;;;4155544;28;19913;-74
2024/01/21 03:07:10;;;;;;;13.70;8.30;;;0.90;99.90;;;;;;4140881;28;20061;-69
2024/01/21 03:09:10;;;;;;;16.00;8.23;;;0.80;99.90;;;;;;4156848;28;20133;-69
2024/01/21 03:11:11;;;;;;;17.45;9.23;;;0.80;99.90;;;;;;4157160;28;20041;-69
2024/01/21 03:13:11;;;;;;;16.70;9.13;;;0.80;99.90;;;;;;4158034;28;20037;-69
2024/01/21 03:15:12;;;;;;;19.75;10.18;;;0.80;99.90;;;;;;4156990;28;20083;-68
2024/01/21 03:17:12;;;;;;;17.50;8.77;;;0.80;99.90;;;;;;4155515;28;20026;-70
2024/01/21 03:19:14;;;;;;;21.10;9.95;;;0.80;99.90;;;;;;4140313;28;20033;-70
2024/01/21 03:21:15;;;;;;;16.90;9.30;;;0.90;99.90;;;;;;4156835;28;20482;-71
2024/01/21 03:23:15;;;;;;;18.33;9.13;;;0.80;99.90;;;;;;4140414;28;20061;-69
2024/01/21 03:25:16;;;;;;;16.02;9.30;;;0.80;99.90;;;;;;4157521;28;20693;-70
2024/01/21 03:27:17;;;;;;;17.48;8.50;;;0.80;99.90;;;;;;4153293;28;20483;-69
2024/01/21 03:29:17;;;;;;;18.35;8.75;;;0.80;99.90;;;;;;4157963;28;20103;-68
2024/01/21 03:31:21;;;;;;;20.85;10.05;;;0.80;99.90;;;;;;4152562;28;20033;-69
2024/01/21 03:33:22;;;;;;;17.00;9.13;;;0.80;99.90;;;;;;4155328;28;20037;-70
2024/01/21 03:35:22;;;;;;;21.50;10.77;;;0.70;99.90;;;;;;4155144;28;20623;-70
2024/01/21 03:37:23;;;;;;;18.08;9.32;;;0.80;99.90;;;;;;4157160;28;20116;-69
2024/01/21 03:39:23;;;;;;;17.25;8.93;;;0.80;99.90;;;;;;4158472;28;20048;-69
2024/01/21 03:41:24;;;;;;;17.67;8.65;;;0.80;99.90;;;;;;4152646;28;20038;-69
2024/01/21 03:43:24;;;;;;;18.85;9.27;;;0.80;99.90;;;;;;4156308;28;20030;-69
2024/01/21 03:45:25;;;;;;;17.50;9.65;;;0.90;99.90;;;;;;4158213;28;20060;-70
2024/01/21 03:47:26;;;;;;;19.95;10.20;;;0.90;99.90;;;;;;4134342;28;20784;-69
2024/01/21 03:49:28;;;;;;;19.70;9.80;;;0.90;99.90;;;;;;4158295;28;20025;-70
2024/01/21 03:51:28;;;;;;;18.48;9.52;;;0.90;99.90;;;;;;4153686;28;20073;-69
2024/01/21 03:53:29;;;;;;;17.35;9.35;;;0.90;99.90;;;;;;4162857;28;20387;-69
2024/01/21 03:55:30;;;;;;;24.15;9.35;;;0.90;99.90;;;;;;4160387;28;20483;-70
2024/01/21 03:57:30;;;;;;;21.17;10.15;;;1.00;99.90;;;;;;4157377;28;20033;-69
2024/01/21 03:59:31;;;;;;;18.70;9.02;;;0.90;99.90;;;;;;4160803;28;20026;-69
2024/01/21 04:01:31;;;;;;;16.35;8.73;;;1.00;99.90;;;;;;4141723;28;20184;-68
2024/01/21 04:03:33;;;;;;;19.50;9.45;;;1.00;99.90;;;;;;4160174;28;20470;-69
2024/01/21 04:05:33;;;;;;;18.85;9.35;;;1.00;99.90;;;;;;4159108;28;20036;-74
2024/01/21 04:07:34;;;;;;;22.13;10.10;;;1.00;99.90;;;;;;4153870;28;21179;-73
2024/01/21 04:09:35;;;;;;;17.85;9.05;;;1.00;99.90;;;;;;4161369;28;20399;-71
2024/01/21 04:11:35;;;;;;;19.58;8.82;;;1.10;99.90;;;;;;4157906;28;20036;-71
2024/01/21 04:13:36;;;;;;;21.10;9.85;;;1.00;99.90;;;;;;4161114;28;20025;-71
2024/01/21 04:15:36;;;;;;;16.40;8.48;;;1.00;99.90;;;;;;4154916;28;20387;-73
2024/01/21 04:17:37;;;;;;;16.10;9.02;;;1.10;99.90;;;;;;4137346;28;20073;-73
2024/01/21 04:19:38;;;;;;;16.90;8.73;;;1.00;99.90;;;;;;4155705;28;20399;-73
2024/01/21 04:21:38;;;;;;;18.75;9.05;;;1.00;99.90;;;;;;4160713;28;20471;-73
2024/01/21 04:23:39;;;;;;;17.73;8.93;;;1.10;99.90;;;;;;4156540;28;20400;-73
2024/01/21 04:25:39;;;;;;;17.80;9.52;;;1.10;99.90;;;;;;4158399;28;20115;-73
2024/01/21 04:27:40;;;;;;;18.88;9.35;;;1.10;99.90;;;;;;4154838;28;20387;-73
2024/01/21 04:29:41;;;;;;;15.57;8.65;;;1.10;99.90;;;;;;4158943;28;20030;-73
2024/01/21 04:31:44;;;;;;;16.65;8.88;;;1.10;99.90;;;;;;4159626;28;20041;-73
2024/01/21 04:33:45;;;;;;;17.17;9.02;;;1.10;99.90;;;;;;4142091;28;20030;-73
2024/01/21 04:35:45;;;;;;;17.55;8.77;;;1.10;99.90;;;;;;4142509;28;20022;-74
2024/01/21 04:37:46;;;;;;;17.83;9.07;;;1.10;99.90;;;;;;4159113;28;20475;-73
2024/01/21 04:39:47;;;;;;;20.90;9.95;;;1.20;99.90;;;;;;4160655;28;20498;-73
2024/01/21 04:41:48;;;;;;;16.92;8.43;;;1.20;99.90;;;;;;4159739;28;20037;-73
2024/01/21 04:43:48;;;;;;;17.92;8.90;;;1.20;99.90;;;;;;4159685;28;20120;-73
2024/01/21 04:45:49;;;;;;;17.05;9.07;;;1.20;99.90;;;;;;4143046;28;20022;-73
2024/01/21 04:47:50;;;;;;;18.15;8.93;;;1.20;99.90;;;;;;4155647;28;20029;-73
2024/01/21 04:49:50;;;;;;;17.85;9.25;;;1.20;99.90;;;;;;4161769;28;20061;-72
2024/01/21 04:51:52;;;;;;;17.58;9.02;;;1.20;99.90;;;;;;4159941;28;20058;-73
2024/01/21 04:53:52;;;;;;;16.55;8.68;;;1.10;99.90;;;;;;4160755;28;20388;-73
2024/01/21 04:55:53;;;;;;;18.55;8.90;;;1.10;99.90;;;;;;4159979;28;20036;-74
2024/01/21 04:57:53;;;;;;;19.00;9.25;;;1.20;99.90;;;;;;4143156;28;20113;-73
2024/01/21 04:59:54;;;;;;;20.60;9.35;;;1.20;99.90;;;;;;4142517;28;20085;-73
2024/01/21 05:01:54;;;;;;;18.60;8.88;;;1.20;99.90;;;;;;4158352;28;20682;-73
2024/01/21 05:03:55;;;;;;;16.70;8.25;;;1.20;99.90;;;;;;4158301;28;20446;-72
2024/01/21 05:05:57;;;;;;;17.48;8.88;;;1.20;99.90;;;;;;4158899;28;20406;-72
2024/01/21 05:07:57;;;;;;;17.85;8.93;;;1.20;99.90;;;;;;4156981;28;20040;-71
2024/01/21 05:09:58;;;;;;;14.95;8.25;;;1.20;99.90;;;;;;4158360;28;20034;-72
2024/01/21 05:11:58;;;;;;;16.17;8.80;;;1.20;99.90;;;;;;4159275;28;20128;-71
2024/01/21 05:13:59;;;;;;;16.20;8.30;;;1.10;99.90;;;;;;4160959;28;20414;-73
2024/01/21 05:16:00;;;;;;;19.40;9.15;;;1.20;99.90;;;;;;4158957;28;20494;-70
2024/01/21 05:18:00;;;;;;;18.05;8.25;;;1.20;99.90;;;;;;4157265;28;20037;-71
2024/01/21 05:20:01;;;;;;;15.68;7.90;;;1.30;99.90;;;;;;4160164;28;20021;-70
2024/01/21 05:22:02;;;;;;;15.95;8.10;;;1.30;99.90;;;;;;4159891;28;20044;-70
2024/01/21 05:24:03;;;;;;;17.65;8.73;;;1.20;99.90;;;;;;4159673;28;20498;-71
2024/01/21 05:26:03;;;;;;;15.52;8.23;;;1.20;99.90;;;;;;4158735;28;20083;-71
2024/01/21 05:28:04;;;;;;;14.27;7.72;;;1.20;99.90;;;;;;4158680;28;20056;-71
2024/01/21 05:30:06;;;;;;;17.50;8.23;;;1.30;99.90;;;;;;4158498;28;20490;-72
2024/01/21 05:32:06;;;;;;;16.48;8.00;;;1.30;99.90;;;;;;4159256;28;20115;-71
2024/01/21 05:34:07;;;;;;;16.00;8.27;;;1.30;99.90;;;;;;4160954;28;20479;-70
2024/01/21 05:36:09;;;;;;;15.13;7.97;;;1.30;99.90;;;;;;4158083;28;20033;-70
2024/01/21 05:38:09;;;;;;;15.48;8.00;;;1.30;99.90;;;;;;4159123;28;20083;-71
2024/01/21 05:40:10;;;;;;;13.80;7.78;;;1.30;99.90;;;;;;4158125;28;20045;-73
2024/01/21 05:42:11;;;;;;;14.98;7.57;;;1.40;99.90;;;;;;4160452;28;20387;-71
2024/01/21 05:44:11;;;;;;;15.73;8.00;;;1.30;99.90;;;;;;4156576;28;20025;-71
2024/01/21 05:46:12;;;;;;;15.77;7.72;;;1.40;99.90;;;;;;4158650;28;20132;-71
2024/01/21 05:48:12;;;;;;;18.08;7.68;;;1.40;99.90;;;;;;4157893;28;20088;-70
2024/01/21 05:50:13;;;;;;;18.17;7.80;;;1.40;99.90;;;;;;4159706;28;20036;-71
2024/01/21 05:52:14;;;;;;;15.20;7.45;;;1.40;99.90;;;;;;4160429;28;20094;-71
2024/01/21 05:54:14;;;;;;;15.23;7.97;;;1.40;99.90;;;;;;4140335;28;20038;-70
2024/01/21 05:56:18;;;;;;;17.73;7.95;;;1.30;99.90;;;;;;4158261;28;20103;-71
2024/01/21 05:58:19;;;;;;;16.17;8.20;;;1.30;99.90;;;;;;4159536;28;20072;-71
2024/01/21 06:00:19;;;;;;;15.85;8.27;;;1.30;99.90;;;;;;4158986;28;20034;-71
2024/01/21 06:02:20;;;;;;;16.05;7.82;;;1.40;99.90;;;;;;4160459;28;20120;-72
2024/01/21 06:04:21;;;;;;;18.23;8.73;;;1.40;99.90;;;;;;4160612;28;20490;-71
2024/01/21 06:06:22;;;;;;;14.82;7.90;;;1.40;99.90;;;;;;4156824;28;20037;-71
2024/01/21 06:08:22;;;;;;;14.32;7.57;;;1.40;99.90;;;;;;4159794;28;20378;-71
2024/01/21 06:10:23;;;;;;;13.98;6.97;;;1.40;99.90;;;;;;4158390;28;20449;-71
2024/01/21 06:12:23;;;;;;;14.80;8.00;;;1.40;99.90;;;;;;4159069;28;20395;-71
2024/01/21 06:14:25;;;;;;;14.65;8.00;;;1.40;99.90;;;;;;4157068;28;20165;-70
2024/01/21 06:16:25;;;;;;;15.93;8.52;;;1.40;99.90;;;;;;4155082;28;20045;-72
2024/01/21 06:18:26;;;;;;;15.57;8.23;;;1.40;99.90;;;;;;4155303;28;20069;-71
2024/01/21 06:20:26;;;;;;;16.70;8.27;;;1.40;99.90;;;;;;4152972;28;20483;-71
2024/01/21 06:22:28;;;;;;;15.35;7.93;;;1.40;99.90;;;;;;4155310;28;20516;-71
2024/01/21 06:24:29;;;;;;;16.27;8.93;;;1.40;99.90;;;;;;4158196;28;20034;-71
2024/01/21 06:26:29;;;;;;;16.65;7.90;;;1.40;99.90;;;;;;4154282;28;20037;-70
2024/01/21 06:28:30;;;;;;;17.30;8.50;;;1.40;99.90;;;;;;4156411;28;20041;-71
2024/01/21 06:30:31;;;;;;;16.35;8.05;;;1.40;99.90;;;;;;4151813;28;20065;-71
2024/01/21 06:32:32;;;;;;;21.42;8.15;;;1.40;99.90;;;;;;4151204;28;20390;-71
2024/01/21 06:34:32;;;;;;;14.82;7.43;;;1.40;99.90;;;;;;4153774;28;20053;-72
2024/01/21 06:36:33;;;;;;;16.23;7.70;;;1.40;99.90;;;;;;4148579;28;20491;-69
2024/01/21 06:38:34;;;;;;;13.25;7.47;;;1.40;99.90;;;;;;4155610;28;20495;-69
2024/01/21 06:40:34;;;;;;;13.80;7.18;;;1.40;99.90;;;;;;4154865;28;20053;-69
2024/01/21 06:42:36;;;;;;;13.90;6.80;;;1.50;99.90;;;;;;4162343;28;20029;-70
2024/01/21 06:44:37;;;;;;;10.98;6.47;;;1.50;99.90;;;;;;4156808;28;20107;-69
2024/01/21 06:46:37;;;;;;;14.48;7.40;;;1.60;99.90;;;;;;4153952;28;20075;-69
2024/01/21 06:48:38;;;;;;;14.05;6.97;;;1.60;99.90;;;;;;4157605;28;20451;-68
2024/01/21 06:50:39;;;;;;;16.38;7.20;;;1.60;99.90;;;;;;4154620;28;20088;-69
2024/01/21 06:52:39;;;;;;;17.27;8.30;;;1.60;99.90;;;;;;4155557;28;20129;-69
2024/01/21 06:54:41;;;;;;;11.82;6.78;;;1.60;99.90;;;;;;4154215;28;20176;-68
2024/01/21 06:56:43;;;;;;;15.73;7.78;;;1.60;99.90;;;;;;4151886;28;20030;-69
2024/01/21 06:58:43;;;;;;;14.48;7.20;;;1.60;99.90;;;;;;4154757;28;20090;-70
2024/01/21 07:00:51;;;;;;;12.57;7.30;;;1.70;99.90;;;;;;4156416;28;20065;-69
2024/01/21 07:02:51;;;;;;;12.40;6.63;;;1.70;99.90;;;;;;4156290;28;20397;-69
2024/01/21 07:04:52;;;;;;;14.23;7.25;;;1.70;99.90;;;;;;4155533;28;20034;-69
2024/01/21 07:06:53;;;;;;;12.90;7.03;;;1.70;99.90;;;;;;4156908;28;20061;-69
2024/01/21 07:08:53;;;;;;;12.77;6.53;;;1.80;99.90;;;;;;4155697;28;20121;-70
2024/01/21 07:10:54;;;;;;;11.80;6.60;;;1.70;99.90;;;;;;4150317;28;20033;-69
2024/01/21 07:12:55;;;;;;;14.15;7.05;;;1.80;99.90;;;;;;4136779;28;20531;-72
2024/01/21 07:14:56;;;;;;;13.57;7.55;;;1.70;99.90;;;;;;4157488;28;20111;-69
2024/01/21 07:16:57;;;;;;;12.15;6.88;;;1.80;99.90;;;;;;4139777;28;20462;-69
2024/01/21 07:18:58;;;;;;;14.75;7.80;;;1.80;99.90;;;;;;4122328;28;20508;-69
2024/01/21 07:20:58;;;;;;;13.10;6.93;;;1.80;99.90;;;;;;4153367;28;20442;-69
2024/01/21 07:22:59;;;;;;;14.23;7.65;;;1.80;99.90;;;;;;4138917;28;20058;-68
2024/01/21 07:25:00;;;;;;;14.70;6.47;;;1.80;99.90;;;;;;4154261;28;20044;-69
2024/01/21 07:27:01;;;;;;;16.27;7.68;;;1.80;99.90;;;;;;4153161;28;20475;-70
2024/01/21 07:29:02;;;;;;;14.60;7.03;;;1.80;99.90;;;;;;4156828;28;20120;-71
2024/01/21 07:31:03;;;;;;;20.40;7.97;;;1.80;99.90;;;;;;4157310;28;20113;-69
2024/01/21 07:33:04;;;;;;;15.00;7.60;;;1.80;99.90;;;;;;4153766;28;20057;-70
2024/01/21 07:35:05;;;;;;;15.25;8.27;;;1.80;99.90;;;;;;4156255;28;20036;-72
2024/01/21 07:37:05;;;;;;;13.65;7.55;;;1.80;99.90;;;;;;4154629;28;20094;-74
2024/01/21 07:39:06;;;;;;;13.52;7.53;;;1.80;99.90;;;;;;4150824;28;20475;-75
2024/01/21 07:41:07;;;;;;;14.02;6.78;;;1.80;99.90;;;;;;4152536;28;20034;-73
2024/01/21 07:43:10;;;;;;;14.52;8.07;;;1.80;99.90;;;;;;4154353;28;20133;-75
2024/01/21 07:45:11;;;;;;;15.10;7.35;;;1.90;99.90;;;;;;4154242;28;20364;-73
2024/01/21 07:47:12;;;;;;;12.60;7.00;;;1.90;99.90;;;;;;4151870;28;20152;-73
2024/01/21 07:49:12;;;;;;;12.45;6.78;;;1.80;99.90;;;;;;4151837;28;20041;-75
2024/01/21 07:51:15;;;;;;;15.18;7.55;;;1.80;99.90;;;;;;4151036;28;20499;-74
2024/01/21 07:53:19;;;;;;;13.57;7.32;;;1.90;99.90;;;;;;4155724;28;20133;-75
2024/01/21 07:55:19;;;;;;;13.63;7.35;;;1.90;99.90;;;;;;4155681;28;20501;-75
2024/01/21 07:57:20;;;;;;;13.98;7.13;;;1.80;99.90;;;;;;4138908;28;20036;-75
2024/01/21 07:59:21;;;;;;;14.82;7.05;;;1.80;99.90;;;;;;4155953;28;20029;-75
2024/01/21 08:01:24;;;;;;;13.73;8.18;;;1.80;99.90;;;;;;4155582;28;20034;-73
2024/01/21 08:03:24;;;;;;;15.75;7.82;;;1.80;99.90;;;;;;4154711;28;20077;-75
2024/01/21 08:05:25;;;;;;;14.70;8.18;;;1.80;99.90;;;;;;4157836;28;20091;-75
2024/01/21 08:07:26;;;;;;;14.05;7.43;;;1.70;99.90;;;;;;4157631;28;20390;-74
2024/01/21 08:09:28;;;;;;;16.37;8.33;;;1.70;99.90;;;;;;4156588;28;20112;-74
2024/01/21 08:11:28;;;;;;;17.98;7.40;;;1.70;99.90;;;;;;4157044;28;20394;-74
2024/01/21 08:13:29;;;;;;;14.75;7.95;;;1.70;99.90;;;;;;4157462;28;20029;-74
2024/01/21 08:15:30;;;;;;;15.95;8.02;;;1.70;99.90;;;;;;4157722;28;20041;-74
2024/01/21 08:17:31;;;;;;;15.82;8.32;;;1.70;99.90;;;;;;4157756;28;20077;-75
2024/01/21 08:19:36;;;;;;;14.73;7.88;;;1.70;99.90;;;;;;4152445;28;20034;-75
2024/01/21 08:21:37;;;;;;;13.15;7.47;;;1.80;99.90;;;;;;4134215;28;20097;-76
2024/01/21 08:23:40;;;;;;;13.55;7.57;;;1.80;99.90;;;;;;4158227;28;20421;-75
2024/01/21 08:25:41;;;;;;;;;;;1.80;99.90;;;;;;4155046;28;20063;-75
2024/01/21 08:27:42;;;;;;;15.80;8.07;;;1.80;99.90;;;;;;4156123;28;19909;-74
2024/01/21 08:29:42;;;;;;;14.18;7.63;;;1.80;99.90;;;;;;4157519;28;20044;-75
2024/01/21 08:31:45;;;;;;;13.65;7.07;;;1.80;99.90;;;;;;4153775;28;20036;-75
2024/01/21 08:33:45;;;;;;;;;;;1.90;99.90;;;;;;4157318;28;20042;-75
2024/01/21 08:35:46;;;;;;;14.25;7.32;;;1.90;99.90;;;;;;4152794;28;20381;-75
2024/01/21 08:37:47;;;;;;;12.38;6.65;;;1.90;99.90;;;;;;4155973;28;20052;-74
2024/01/21 08:39:48;;;;;;;14.73;7.85;;;2.00;99.90;;;;;;4157665;28;20032;-75
2024/01/21 08:41:48;;;;;;;13.02;6.93;;;2.00;99.90;;;;;;4155529;28;20446;-75
2024/01/21 08:43:49;;;;;;;11.18;6.30;;;2.00;99.90;;;;;;4159311;28;20042;-74
2024/01/21 08:45:50;;;;;;;15.70;7.43;;;2.10;99.90;;;;;;4155684;28;20030;-74
2024/01/21 08:47:50;;;;;;;14.45;7.03;;;2.10;99.90;;;;;;4158650;28;20030;-72
2024/01/21 08:49:51;;;;;;;15.50;7.88;;;2.20;99.90;;;;;;4143793;28;20108;-71
2024/01/21 08:51:52;;;;;;;14.40;7.32;;;2.20;99.90;;;;;;4160040;28;20045;-73
2024/01/21 08:53:57;;;;;;;15.32;7.60;;;2.20;99.90;;;;;;4142856;28;20085;-72
2024/01/21 08:55:57;;;;;;;15.90;7.25;;;2.30;99.90;;;;;;4157390;28;20033;-72
2024/01/21 08:57:58;;;;;;;14.93;7.20;;;2.30;99.90;;;;;;4149165;28;20088;-71
2024/01/21 08:59:58;;;;;;;13.10;7.07;;;2.30;99.90;;;;;;4160758;28;20305;-70
2024/01/21 09:01:59;;;;;;;13.30;7.20;;;2.30;99.90;;;;;;4160933;28;20034;-71
2024/01/21 09:04:00;;;;;;;12.63;6.97;;;2.40;99.90;;;;;;4158052;28;20483;-70
2024/01/21 09:06:01;;;;;;;14.98;7.07;;;2.40;99.90;;;;;;4157694;28;20377;-71
2024/01/21 09:08:02;;;;;;;14.13;7.40;;;2.40;99.90;;;;;;4157801;28;20061;-70
2024/01/21 09:10:04;;;;;;;14.10;7.82;;;2.40;99.90;;;;;;4139875;28;20580;-71
2024/01/21 09:12:04;;;;;;;13.52;6.55;;;2.50;99.90;;;;;;4157251;28;20038;-70
2024/01/21 09:14:06;;;;;;;12.88;7.10;;;2.50;99.90;;;;;;4159572;28;20076;-70
2024/01/21 09:16:09;;;;;;;13.18;6.72;;;2.60;99.90;;;;;;4159381;28;21265;-70
2024/01/21 09:18:09;;;;;;;15.70;7.63;;;2.60;99.90;;;;;;4159885;28;20052;-73
2024/01/21 09:20:10;;;;;;;18.48;7.32;;;2.60;99.90;;;;;;4159850;28;20049;-71
2024/01/21 09:22:10;;;;;;;15.50;7.65;;;2.60;99.90;;;;;;4160718;28;20028;-70
2024/01/21 09:24:14;;;;;;;13.50;7.22;;;2.60;99.90;;;;;;4157988;28;20493;-69
2024/01/21 09:26:15;;;;;;;15.98;7.25;;;2.70;99.90;;;;;;4155130;28;20161;-70
2024/01/21 09:28:15;;;;;;;17.65;8.70;;;2.70;99.90;;;;;;4161673;28;20038;-70
2024/01/21 09:30:16;;;;;;;17.45;7.45;;;2.70;99.90;;;;;;4154257;28;20434;-70
2024/01/21 09:32:17;;;;;;;13.52;7.13;;;2.70;99.90;;;;;;4154133;28;20156;-70
2024/01/21 09:34:17;;;;;;;16.05;7.47;;;2.70;99.90;;;;;;4157389;28;20037;-72
2024/01/21 09:36:19;;;;;;;15.55;7.65;;;2.80;99.90;;;;;;4153282;28;20087;-71
2024/01/21 09:38:21;;;;;;;13.70;7.60;;;2.80;99.90;;;;;;4156455;28;20116;-70
2024/01/21 09:40:22;;;;;;;12.68;6.80;;;2.80;99.90;;;;;;4137522;28;20030;-71
2024/01/21 09:42:22;;;;;;;13.00;7.10;;;2.80;99.90;;;;;;4158030;28;20036;-70
2024/01/21 09:44:28;;;;;;;15.40;7.38;;;2.90;99.90;;;;;;4158560;28;20397;-71
2024/01/21 09:46:29;;;;;;;12.07;7.15;;;2.90;99.90;;;;;;4158159;28;20326;-70
2024/01/21 09:48:31;;;;;;;14.70;7.10;;;2.90;99.90;;;;;;4158883;28;20505;-70
2024/01/21 09:50:32;;;;;;;14.88;6.85;;;3.00;99.90;;;;;;4158333;28;20579;-70
2024/01/21 09:52:33;;;;;;;10.77;6.50;;;3.00;99.90;;;;;;4140424;28;20115;-71
2024/01/21 09:54:34;;;;;;;11.75;6.78;;;3.00;99.90;;;;;;4154173;28;20042;-70
2024/01/21 09:56:34;;;;;;;13.45;7.40;;;3.10;99.90;;;;;;4154701;28;20057;-71
2024/01/21 09:58:44;;;;;;;10.43;6.25;;;3.00;99.90;;;;;;4159708;28;20402;-70
2024/01/21 10:00:47;;;;;;;13.32;6.97;;;3.10;99.90;;;;;;4153237;28;20103;-70
2024/01/21 10:02:50;;;;;;;13.48;7.35;;;3.10;99.90;;;;;;4154946;28;20121;-72
2024/01/21 10:04:51;;;;;;;12.93;7.00;;;3.20;99.90;;;;;;4155316;28;20520;-70
2024/01/21 10:06:52;;;;;;;12.25;6.15;;;3.20;99.90;;;;;;4157143;28;20402;-75
2024/01/21 10:08:53;;;;;;;12.00;6.90;;;3.20;99.90;;;;;;4157193;28;20060;-75
2024/01/21 10:10:54;;;;;;;11.60;6.40;;;3.30;99.90;;;;;;4158905;28;20128;-75
2024/01/21 10:12:54;;;;;;;13.95;7.70;;;3.30;99.90;;;;;;4158527;28;20099;-75
2024/01/21 10:14:55;;;;;;;14.57;7.53;;;3.30;99.90;;;;;;4156751;28;20048;-73
2024/01/21 10:16:56;;;;;;;13.50;6.97;;;3.30;99.90;;;;;;4137117;28;20113;-72
2024/01/21 10:18:56;;;;;;;15.93;8.10;;;3.30;99.90;;;;;;4151500;28;20037;-72
2024/01/21 10:20:57;;;;;;;12.70;6.93;;;3.40;99.90;;;;;;4155820;28;20068;-71
2024/01/21 10:23:11;;;;;;;15.23;8.10;;;3.30;99.90;;;;;;4156610;28;20053;-72
2024/01/21 10:25:13;;;;;;;13.25;7.20;;;3.40;99.90;;;;;;4154188;28;20042;-71
2024/01/21 10:27:15;;;;;;;10.75;6.70;;;3.40;99.90;;;;;;4151350;28;20038;-71
2024/01/21 10:29:16;;;;;;;10.68;6.72;;;3.40;99.90;;;;;;4156854;28;20053;-70
2024/01/21 10:31:17;;;;;;;18.25;7.70;;;3.50;99.90;;;;;;4156225;28;20739;-71